createdAt,value
2023-01-25T00:02:23.815Z,51.11
2023-01-25T00:04:50.389Z,52.72
2023-01-25T00:07:16.855Z,53.79
2023-01-25T00:09:43.638Z,53.39
2023-01-25T00:12:10.171Z,53.14
2023-01-25T00:14:36.627Z,54.98
2023-01-25T00:17:03.078Z,54.22
2023-01-25T00:19:29.617Z,55.15
2023-01-25T00:21:56.726Z,54.94
2023-01-25T00:24:24.226Z,54.27
2023-01-25T00:26:50.785Z,53.67
2023-01-25T00:29:17.681Z,54.40
2023-01-25T00:31:54.463Z,55.07
2023-01-25T00:34:24.098Z,56.08
2023-01-25T00:37:12.737Z,56.57
2023-01-25T00:39:39.285Z,58.07
2023-01-25T00:42:08.765Z,57.29
2023-01-25T00:44:35.350Z,56.50
2023-01-25T00:47:02.139Z,56.08
2023-01-25T00:49:30.945Z,56.98
2023-01-25T00:51:58.370Z,58.79
2023-01-25T00:54:24.981Z,58.72
2023-01-25T00:56:56.423Z,58.32
2023-01-25T00:59:24.183Z,56.82
2023-01-25T01:01:51.596Z,55.72
2023-01-25T01:04:19.227Z,55.75
2023-01-25T01:06:46.047Z,55.30
2023-01-25T01:09:15.351Z,57.27
2023-01-25T01:11:42.138Z,57.36
2023-01-25T01:14:09.351Z,59.31
2023-01-25T01:16:36.123Z,57.60
2023-01-25T01:19:02.817Z,57.64
2023-01-25T01:21:29.572Z,58.34
2023-01-25T01:23:56.719Z,57.03
2023-01-25T01:26:23.780Z,60.52
2023-01-25T01:28:50.293Z,59.49
2023-01-25T01:31:19.110Z,59.49
2023-01-25T01:33:49.230Z,60.73
2023-01-25T01:36:16.893Z,61.13
2023-01-25T01:38:43.828Z,59.43
2023-01-25T01:41:11.119Z,60.16
2023-01-25T01:43:37.870Z,60.18
2023-01-25T01:46:09.534Z,58.13
2023-01-25T01:48:51.148Z,57.63
2023-01-25T01:51:36.432Z,59.68
2023-01-25T01:54:07.340Z,58.97
2023-01-25T01:56:49.798Z,57.91
2023-01-25T01:59:16.307Z,57.35
2023-01-25T02:01:43.572Z,56.41
2023-01-25T02:04:10.792Z,55.54
2023-01-25T02:06:48.343Z,55.27
2023-01-25T02:09:19.619Z,54.36
2023-01-25T02:11:46.880Z,54.22
2023-01-25T02:14:15.209Z,53.40
2023-01-25T02:16:41.777Z,53.14
2023-01-25T02:19:17.803Z,53.18
2023-01-25T02:21:45.997Z,53.08
2023-01-25T02:24:27.648Z,54.31
2023-01-25T02:26:54.523Z,53.63
2023-01-25T02:29:24.018Z,53.79
2023-01-25T02:31:52.668Z,53.45
2023-01-25T02:34:19.369Z,52.79
2023-01-25T02:36:45.888Z,53.00
2023-01-25T02:39:16.717Z,52.66
2023-01-25T02:41:46.723Z,52.94
2023-01-25T02:44:14.524Z,54.03
2023-01-25T02:46:42.034Z,52.92
2023-01-25T02:49:10.151Z,53.11
2023-01-25T02:51:40.192Z,53.64
2023-01-25T02:54:08.171Z,53.37
2023-01-25T02:56:34.828Z,55.45
2023-01-25T02:59:05.507Z,55.61
2023-01-25T03:01:37.179Z,57.98
2023-01-25T03:04:05.398Z,59.67
2023-01-25T03:06:32.856Z,60.83
2023-01-25T03:08:59.453Z,59.33
2023-01-25T03:11:25.938Z,59.50
2023-01-25T03:13:52.580Z,59.10
2023-01-25T03:16:19.551Z,58.01
2023-01-25T03:18:46.145Z,58.52
2023-01-25T03:21:15.319Z,57.18
2023-01-25T03:23:43.312Z,59.23
2023-01-25T03:26:11.480Z,59.76
2023-01-25T03:28:39.097Z,61.75
2023-01-25T03:31:06.403Z,60.44
2023-01-25T03:33:33.262Z,59.32
2023-01-25T03:36:00.044Z,61.08
2023-01-25T03:40:53.891Z,60.96
2023-01-25T03:43:20.809Z,60.76
2023-01-25T03:45:53.096Z,59.55
2023-01-25T03:48:20.046Z,58.47
2023-01-25T03:50:51.792Z,58.15
2023-01-25T03:53:31.304Z,57.83
2023-01-25T03:56:03.375Z,57.10
2023-01-25T03:58:30.700Z,56.55
2023-01-25T04:00:59.279Z,55.62
2023-01-25T04:03:26.242Z,56.21
2023-01-25T04:05:54.086Z,56.17
2023-01-25T04:08:21.320Z,55.29
2023-01-25T04:11:01.268Z,55.60
2023-01-25T04:13:28.200Z,55.34
2023-01-25T04:15:55.072Z,56.59
2023-01-25T04:18:21.717Z,55.57
2023-01-25T04:20:55.354Z,54.74
2023-01-25T04:23:22.580Z,54.81
2023-01-25T04:25:53.493Z,55.96
2023-01-25T04:28:19.960Z,54.61
2023-01-25T04:30:47.166Z,54.65
2023-01-25T04:33:13.843Z,54.57
2023-01-25T04:35:40.323Z,54.29
2023-01-25T04:38:07.265Z,54.77
2023-01-25T04:40:33.779Z,54.72
2023-01-25T04:43:00.363Z,56.92
2023-01-25T04:45:26.930Z,56.61
2023-01-25T04:48:02.017Z,57.31
2023-01-25T04:50:28.874Z,59.49
2023-01-25T04:52:55.408Z,59.62
2023-01-25T04:55:22.047Z,60.36
2023-01-25T04:57:51.960Z,58.84
2023-01-25T05:00:19.538Z,59.35
2023-01-25T05:02:46.597Z,58.92
2023-01-25T05:05:13.394Z,58.80
2023-01-25T05:07:39.979Z,58.48
2023-01-25T05:10:08.267Z,57.49
2023-01-25T05:12:35.025Z,57.72
2023-01-25T05:15:01.571Z,58.39
2023-01-25T05:17:28.209Z,60.19
2023-01-25T05:19:54.704Z,59.52
2023-01-25T05:22:21.402Z,60.33
2023-01-25T05:24:48.196Z,59.94
2023-01-25T05:27:17.640Z,59.91
2023-01-25T05:29:45.459Z,61.40
2023-01-25T05:32:16.238Z,60.88
2023-01-25T05:34:43.581Z,61.51
2023-01-25T05:37:12.968Z,61.33
2023-01-25T05:39:39.630Z,61.35
2023-01-25T05:42:14.147Z,60.37
2023-01-25T05:44:41.066Z,59.77
2023-01-25T05:47:12.681Z,58.97
2023-01-25T05:49:39.271Z,59.10
2023-01-25T05:52:05.841Z,60.16
2023-01-25T05:54:32.870Z,63.52
2023-01-25T05:57:00.233Z,61.62
2023-01-25T05:59:27.198Z,62.34
2023-01-25T06:01:53.867Z,64.61
2023-01-25T06:04:20.671Z,63.51
2023-01-25T06:06:47.262Z,63.47
2023-01-25T06:09:14.569Z,61.57
2023-01-25T06:11:47.954Z,61.05
2023-01-25T06:14:14.732Z,60.12
2023-01-25T06:16:41.593Z,59.39
2023-01-25T06:19:08.712Z,60.19
2023-01-25T06:21:38.792Z,59.82
2023-01-25T06:24:05.711Z,59.71
2023-01-25T06:26:32.334Z,60.87
2023-01-25T06:28:59.134Z,59.66
2023-01-25T06:31:25.843Z,60.18
2023-01-25T06:33:53.072Z,60.61
2023-01-25T06:36:20.919Z,60.59
2023-01-25T06:38:51.815Z,61.81
2023-01-25T06:41:19.485Z,60.79
2023-01-25T06:43:47.848Z,60.33
2023-01-25T06:46:14.694Z,60.40
2023-01-25T06:48:42.957Z,59.44
2023-01-25T06:51:11.691Z,59.45
2023-01-25T06:53:40.403Z,59.97
2023-01-25T06:56:12.463Z,61.32
2023-01-25T06:58:39.765Z,61.38
2023-01-25T07:01:15.893Z,60.35
2023-01-25T07:03:42.876Z,59.64
2023-01-25T07:06:11.286Z,60.74
2023-01-25T07:08:39.650Z,62.79
2023-01-25T07:11:09.607Z,62.01
2023-01-25T07:13:36.123Z,60.99
2023-01-25T07:16:05.655Z,60.96
2023-01-25T07:18:32.816Z,60.78
2023-01-25T07:21:07.950Z,60.14
2023-01-25T07:23:34.953Z,59.61
2023-01-25T07:26:01.876Z,59.72
2023-01-25T07:28:28.919Z,58.54
2023-01-25T07:30:55.562Z,58.35
2023-01-25T07:33:22.125Z,57.82
2023-01-25T07:35:51.003Z,58.75
2023-01-25T07:38:17.795Z,58.43
2023-01-25T07:40:44.628Z,61.34
2023-01-25T07:43:11.191Z,60.31
2023-01-25T07:45:38.016Z,60.79
2023-01-25T07:48:09.958Z,60.82
2023-01-25T07:50:36.551Z,60.26
2023-01-25T07:53:03.207Z,61.31
2023-01-25T07:55:29.711Z,61.96
2023-01-25T07:57:56.381Z,62.66
2023-01-25T08:00:24.152Z,63.09
2023-01-25T08:02:52.115Z,64.67
2023-01-25T08:05:19.724Z,64.02
2023-01-25T08:07:47.362Z,62.66
2023-01-25T08:10:14.396Z,62.68
2023-01-25T08:12:45.666Z,63.37
2023-01-25T08:15:15.385Z,65.00
2023-01-25T08:17:41.989Z,62.32
2023-01-25T08:20:09.898Z,61.47
2023-01-25T08:22:36.571Z,63.98
2023-01-25T08:25:04.385Z,65.71
2023-01-25T08:27:30.964Z,63.55
2023-01-25T08:29:57.527Z,62.64
2023-01-25T08:32:24.279Z,61.89
2023-01-25T08:34:51.026Z,60.96
2023-01-25T08:37:17.557Z,60.81
2023-01-25T08:39:44.157Z,60.33
2023-01-25T08:42:10.783Z,59.62
2023-01-25T08:44:37.328Z,59.43
2023-01-25T08:47:04.128Z,58.90
2023-01-25T08:49:31.724Z,59.15
2023-01-25T08:51:58.589Z,58.83
2023-01-25T08:54:25.248Z,59.19
2023-01-25T08:56:52.036Z,58.71
2023-01-25T08:59:18.595Z,57.88
2023-01-25T09:01:45.142Z,58.31
2023-01-25T09:04:11.707Z,57.35
2023-01-25T09:06:38.317Z,57.22
2023-01-25T09:09:04.932Z,56.79
2023-01-25T09:11:33.609Z,56.68
2023-01-25T09:14:00.085Z,56.55
2023-01-25T09:16:30.271Z,57.28
2023-01-25T09:18:58.799Z,59.20
2023-01-25T09:21:25.768Z,59.06
2023-01-25T09:24:09.708Z,60.43
2023-01-25T09:26:42.973Z,59.38
2023-01-25T09:29:11.629Z,57.94
2023-01-25T09:31:45.180Z,58.95
2023-01-25T09:34:13.287Z,59.42
2023-01-25T09:36:41.054Z,59.26
2023-01-25T09:39:07.704Z,58.66
2023-01-25T09:42:00.722Z,59.45
2023-01-25T09:44:42.446Z,61.29
2023-01-25T09:47:14.920Z,61.82
2023-01-25T09:50:12.992Z,62.71
2023-01-25T09:53:19.146Z,62.44
2023-01-25T09:55:51.113Z,62.41
2023-01-25T09:58:21.321Z,63.22
2023-01-25T10:00:50.994Z,61.96
2023-01-25T10:03:20.640Z,62.26
2023-01-25T10:05:49.847Z,63.24
2023-01-25T10:08:48.046Z,61.08
2023-01-25T10:11:19.443Z,60.69
2023-01-25T10:13:46.078Z,60.66
2023-01-25T10:16:37.492Z,59.70
2023-01-25T10:19:24.434Z,61.12
2023-01-25T10:21:58.622Z,59.32
2023-01-25T10:25:13.732Z,58.83
2023-01-25T10:27:50.744Z,58.43
2023-01-25T10:30:27.717Z,57.11
2023-01-25T10:33:11.927Z,57.68
2023-01-25T10:35:43.116Z,59.40
2023-01-25T10:38:21.825Z,57.29
2023-01-25T10:40:53.563Z,57.36
2023-01-25T10:43:23.379Z,59.84
2023-01-25T10:45:50.667Z,60.14
2023-01-25T10:48:21.864Z,59.86
2023-01-25T10:50:51.704Z,60.02
2023-01-25T10:53:37.253Z,59.52
2023-01-25T10:56:13.033Z,59.98
2023-01-25T10:58:42.385Z,60.34
2023-01-25T11:01:30.241Z,58.68
2023-01-25T11:03:57.633Z,58.40
2023-01-25T11:06:47.574Z,58.07
2023-01-25T11:09:29.553Z,57.85
2023-01-25T11:11:57.336Z,57.13
2023-01-25T11:14:27.222Z,57.78
2023-01-25T11:16:55.887Z,57.11
2023-01-25T11:19:39.880Z,58.16
2023-01-25T11:22:18.968Z,56.97
2023-01-25T11:24:46.119Z,56.33
2023-01-25T11:27:24.620Z,57.33
2023-01-25T11:30:12.843Z,58.23
2023-01-25T11:32:40.504Z,58.89
2023-01-25T11:35:25.556Z,59.98
2023-01-25T11:38:14.186Z,60.18
2023-01-25T11:41:18.391Z,59.82
2023-01-25T11:43:56.391Z,59.07
2023-01-25T11:46:29.331Z,59.95
2023-01-25T11:49:18.973Z,63.41
2023-01-25T11:52:13.537Z,63.85
2023-01-25T11:55:01.979Z,64.87
2023-01-25T11:57:39.860Z,63.55
2023-01-25T12:00:28.914Z,62.02
2023-01-25T12:03:03.629Z,60.64
2023-01-25T12:06:04.276Z,60.23
2023-01-25T12:09:03.363Z,60.75
2023-01-25T12:12:10.013Z,60.02
2023-01-25T12:14:48.723Z,59.62
2023-01-25T12:18:09.172Z,58.41
2023-01-25T12:21:22.926Z,60.84
2023-01-25T12:24:18.171Z,61.43
2023-01-25T12:27:09.738Z,62.08
2023-01-25T12:29:41.116Z,63.02
2023-01-25T12:32:51.768Z,62.42
2023-01-25T12:35:23.756Z,62.48
2023-01-25T12:37:55.617Z,60.72
2023-01-25T12:40:40.868Z,59.97
2023-01-25T12:43:24.743Z,58.99
2023-01-25T12:45:51.729Z,58.70
2023-01-25T12:48:28.903Z,58.39
2023-01-25T12:50:59.923Z,57.68
2023-01-25T12:53:41.850Z,57.15
2023-01-25T12:56:11.830Z,58.74
2023-01-25T12:58:44.189Z,58.65
2023-01-25T13:01:27.593Z,61.53
2023-01-25T13:04:23.587Z,62.73
2023-01-25T13:07:15.502Z,61.30
2023-01-25T13:09:59.750Z,63.26
2023-01-25T13:12:26.516Z,61.68
2023-01-25T13:14:53.405Z,62.50
2023-01-25T13:17:41.185Z,61.28
2023-01-25T13:20:38.805Z,62.87
2023-01-25T13:23:13.072Z,61.34
2023-01-25T13:25:39.536Z,62.70
2023-01-25T13:28:40.703Z,60.78
2023-01-25T13:31:07.291Z,60.49
2023-01-25T13:33:35.783Z,59.93
2023-01-25T13:36:39.899Z,59.06
2023-01-25T13:39:32.983Z,59.88
2023-01-25T13:41:59.898Z,60.71
2023-01-25T13:44:28.800Z,60.91
2023-01-25T13:47:03.748Z,61.41
2023-01-25T13:49:41.512Z,62.57
2023-01-25T13:52:11.793Z,62.47
2023-01-25T13:54:49.674Z,62.10
2023-01-25T13:57:22.022Z,61.88
2023-01-25T13:59:50.794Z,61.46
2023-01-25T14:02:20.828Z,60.48
2023-01-25T14:04:48.768Z,61.26
2023-01-25T14:07:20.511Z,60.74
2023-01-25T14:09:48.474Z,60.61
2023-01-25T14:12:33.963Z,61.00
2023-01-25T14:15:23.103Z,61.92
2023-01-25T14:18:15.189Z,63.31
2023-01-25T14:20:42.970Z,63.95
2023-01-25T14:23:30.929Z,62.80
2023-01-25T14:25:59.239Z,62.76
2023-01-25T14:28:26.991Z,62.32
2023-01-25T14:30:55.808Z,61.97
2023-01-25T14:33:27.257Z,60.65
2023-01-25T14:36:00.055Z,60.27
2023-01-25T14:38:33.080Z,61.17
2023-01-25T14:41:18.338Z,61.28
2023-01-25T14:43:53.776Z,60.61
2023-01-25T14:46:28.570Z,59.63
2023-01-25T14:49:26.851Z,58.76
2023-01-25T14:52:05.853Z,58.65
2023-01-25T14:54:35.072Z,59.24
2023-01-25T14:57:05.228Z,59.20
2023-01-25T14:59:36.259Z,60.51
2023-01-25T15:02:15.063Z,61.20
2023-01-25T15:05:11.100Z,62.23
2023-01-25T15:07:49.030Z,63.19
2023-01-25T15:10:28.843Z,60.90
2023-01-25T15:13:12.832Z,60.67
2023-01-25T15:16:10.081Z,61.22
2023-01-25T15:18:53.964Z,61.69
2023-01-25T15:21:30.063Z,61.16
2023-01-25T15:23:58.595Z,61.49
2023-01-25T15:26:29.796Z,60.92
2023-01-25T15:29:02.308Z,61.24
2023-01-25T15:31:31.580Z,60.29
2023-01-25T15:33:58.924Z,60.53
2023-01-25T15:36:26.020Z,61.17
2023-01-25T15:38:52.566Z,60.96
2023-01-25T15:41:19.208Z,61.38
2023-01-25T15:43:46.685Z,61.52
2023-01-25T15:46:19.460Z,59.58
2023-01-25T15:48:46.741Z,59.32
2023-01-25T15:51:13.392Z,60.41
2023-01-25T15:53:40.222Z,59.90
2023-01-25T15:56:12.562Z,60.39
2023-01-25T15:58:42.201Z,61.73
2023-01-25T16:01:09.134Z,62.48
2023-01-25T16:03:35.999Z,61.23
2023-01-25T16:06:20.136Z,61.97
2023-01-25T16:08:46.728Z,63.51
2023-01-25T16:11:13.399Z,62.20
2023-01-25T16:13:41.478Z,61.17
2023-01-25T16:16:17.465Z,62.06
2023-01-25T16:18:44.200Z,61.71
2023-01-25T16:21:12.537Z,60.76
2023-01-25T16:23:39.559Z,59.44
2023-01-25T16:26:16.457Z,59.49
2023-01-25T16:28:43.019Z,58.63
2023-01-25T16:31:30.819Z,58.60
2023-01-25T16:33:58.422Z,58.33
2023-01-25T16:36:25.169Z,59.14
2023-01-25T16:38:51.752Z,57.78
2023-01-25T16:41:18.796Z,57.15
2023-01-25T16:43:47.217Z,58.42
2023-01-25T16:46:22.339Z,57.49
2023-01-25T16:48:51.143Z,57.19
2023-01-25T16:51:20.943Z,57.72
2023-01-25T16:53:48.649Z,57.53
2023-01-25T16:56:19.576Z,59.65
2023-01-25T16:58:46.723Z,59.80
2023-01-25T17:01:14.391Z,58.47
2023-01-25T17:03:41.185Z,57.61
2023-01-25T17:06:08.114Z,58.49
2023-01-25T17:08:34.719Z,58.07
2023-01-25T17:11:05.565Z,58.40
2023-01-25T17:13:32.319Z,58.90
2023-01-25T17:16:00.859Z,60.41
2023-01-25T17:18:28.058Z,60.07
2023-01-25T17:20:58.388Z,59.97
2023-01-25T17:23:25.204Z,58.77
2023-01-25T17:25:51.879Z,58.11
2023-01-25T17:28:18.353Z,57.76
2023-01-25T17:30:44.952Z,58.22
2023-01-25T17:33:12.801Z,57.44
2023-01-25T17:35:39.385Z,56.98
2023-01-25T17:38:06.020Z,56.86
2023-01-25T17:40:34.878Z,57.43
2023-01-25T17:43:01.818Z,57.93
2023-01-25T17:45:28.358Z,56.63
2023-01-25T17:47:54.879Z,56.88
2023-01-25T17:50:21.600Z,57.75
2023-01-25T17:52:48.483Z,58.33
2023-01-25T17:55:15.060Z,58.99
2023-01-25T17:57:41.656Z,59.13
2023-01-25T18:00:11.851Z,57.50
2023-01-25T18:02:38.807Z,57.34
2023-01-25T18:05:08.095Z,58.26
2023-01-25T18:07:34.606Z,57.60
2023-01-25T18:10:01.117Z,56.79
2023-01-25T18:12:28.008Z,57.72
2023-01-25T18:14:54.509Z,57.76
2023-01-25T18:17:20.999Z,56.81
2023-01-25T18:19:48.965Z,57.33
2023-01-25T18:22:16.186Z,57.19
2023-01-25T18:24:44.177Z,58.89
2023-01-25T18:27:24.564Z,58.51
2023-01-25T18:29:59.683Z,57.81
2023-01-25T18:32:26.899Z,57.28
2023-01-25T18:34:53.613Z,57.68
2023-01-25T18:37:25.624Z,59.19
2023-01-25T18:39:54.951Z,58.29
2023-01-25T18:42:23.954Z,57.67
2023-01-25T18:44:50.660Z,58.11
2023-01-25T18:47:18.933Z,58.00
2023-01-25T18:49:50.177Z,57.65
2023-01-25T18:52:18.303Z,57.14
2023-01-25T18:54:45.239Z,56.83
2023-01-25T18:57:13.293Z,57.84
2023-01-25T18:59:40.302Z,57.13
2023-01-25T19:02:07.872Z,57.69
2023-01-25T19:04:34.432Z,59.53
2023-01-25T19:07:01.697Z,59.40
2023-01-25T19:09:28.673Z,57.84
2023-01-25T19:11:55.522Z,58.72
2023-01-25T19:14:22.872Z,60.50
2023-01-25T19:16:49.828Z,60.82
2023-01-25T19:19:16.658Z,59.94
2023-01-25T19:21:43.216Z,60.42
2023-01-25T19:24:15.276Z,60.42
2023-01-25T19:26:42.028Z,62.78
2023-01-25T19:29:09.279Z,63.58
2023-01-25T19:31:37.300Z,61.78
2023-01-25T19:34:06.053Z,61.13
2023-01-25T19:36:36.084Z,59.87
2023-01-25T19:39:04.076Z,62.04
2023-01-25T19:41:31.369Z,60.18
2023-01-25T19:44:00.148Z,59.90
2023-01-25T19:46:30.127Z,60.10
2023-01-25T19:48:58.268Z,59.74
2023-01-25T19:51:33.002Z,59.20
2023-01-25T19:54:00.919Z,59.37
2023-01-25T19:56:29.285Z,58.40
2023-01-25T19:58:55.958Z,57.77
2023-01-25T20:01:24.426Z,58.18
2023-01-25T20:03:51.761Z,58.01
2023-01-25T20:06:19.912Z,56.57
2023-01-25T20:08:47.504Z,56.39
2023-01-25T20:11:15.109Z,56.80
2023-01-25T20:13:42.689Z,58.19
2023-01-25T20:16:11.051Z,58.08
2023-01-25T20:18:37.879Z,57.27
2023-01-25T20:21:06.724Z,56.97
2023-01-25T20:23:38.592Z,56.33
2023-01-25T20:26:15.528Z,56.83
2023-01-25T20:28:43.075Z,56.47
2023-01-25T20:31:26.221Z,56.63
2023-01-25T20:33:58.222Z,56.47
2023-01-25T20:36:25.667Z,58.33
2023-01-25T20:38:52.395Z,58.21
2023-01-25T20:41:19.192Z,57.69
2023-01-25T20:43:53.464Z,58.73
2023-01-25T20:46:21.745Z,58.18
2023-01-25T20:48:49.054Z,57.55
2023-01-25T20:51:21.468Z,57.79
2023-01-25T20:53:49.310Z,56.91
2023-01-25T20:56:16.949Z,56.88
2023-01-25T20:58:50.202Z,56.81
2023-01-25T21:01:22.346Z,57.64
2023-01-25T21:03:49.558Z,59.00
2023-01-25T21:06:17.040Z,57.38
2023-01-25T21:08:43.693Z,56.48
2023-01-25T21:11:11.519Z,56.43
2023-01-25T21:13:38.038Z,57.08
2023-01-25T21:16:06.118Z,58.17
2023-01-25T21:18:33.853Z,58.37
2023-01-25T21:21:07.465Z,58.48
2023-01-25T21:23:34.818Z,59.58
2023-01-25T21:26:02.435Z,57.59
2023-01-25T21:28:29.540Z,56.88
2023-01-25T21:30:56.431Z,56.55
2023-01-25T21:33:23.571Z,56.13
2023-01-25T21:35:54.281Z,55.95
2023-01-25T21:38:20.960Z,56.83
2023-01-25T21:40:47.805Z,57.33
2023-01-25T21:43:16.298Z,56.64
2023-01-25T21:46:01.484Z,55.70
2023-01-25T21:48:46.851Z,54.78
2023-01-25T21:51:32.390Z,55.83
2023-01-25T21:53:59.257Z,55.52
2023-01-25T21:56:25.798Z,57.31
2023-01-25T21:58:52.497Z,56.43
2023-01-25T22:01:20.119Z,58.30
2023-01-25T22:03:50.481Z,60.34
2023-01-25T22:06:18.358Z,58.73
2023-01-25T22:08:45.153Z,58.84
2023-01-25T22:11:12.082Z,58.14
2023-01-25T22:13:38.993Z,57.01
2023-01-25T22:16:07.205Z,57.04
2023-01-25T22:18:35.965Z,57.07
2023-01-25T22:21:05.256Z,58.15
2023-01-25T22:23:32.986Z,56.47
2023-01-25T22:26:08.037Z,56.28
2023-01-25T22:28:46.546Z,56.13
2023-01-25T22:31:22.290Z,56.11
2023-01-25T22:33:49.323Z,56.96
2023-01-25T22:36:17.780Z,58.20
2023-01-25T22:38:44.370Z,57.83
2023-01-25T22:41:16.637Z,56.23
2023-01-25T22:43:43.810Z,57.23
2023-01-25T22:46:12.303Z,55.65
2023-01-25T22:48:39.107Z,56.31
2023-01-25T22:51:08.070Z,55.91
2023-01-25T22:53:35.114Z,55.01
2023-01-25T22:56:03.380Z,55.81
2023-01-25T22:58:30.522Z,55.15
2023-01-25T23:00:57.489Z,55.97
2023-01-25T23:03:24.319Z,56.02
2023-01-25T23:06:05.475Z,55.06
2023-01-25T23:08:33.867Z,55.83
2023-01-25T23:11:11.608Z,58.48
2023-01-25T23:13:39.848Z,59.22
2023-01-25T23:16:08.250Z,59.49
2023-01-25T23:18:49.905Z,58.81
2023-01-25T23:21:18.084Z,59.79
2023-01-25T23:23:44.754Z,58.34
2023-01-25T23:26:11.527Z,57.72
2023-01-25T23:28:38.468Z,59.13
2023-01-25T23:31:21.641Z,60.33
2023-01-25T23:33:56.613Z,59.77
2023-01-25T23:36:27.896Z,60.85
2023-01-25T23:38:55.007Z,61.40
2023-01-25T23:41:23.527Z,64.42
2023-01-25T23:43:50.336Z,63.40
2023-01-25T23:46:17.155Z,62.23
2023-01-25T23:48:44.248Z,60.87
2023-01-25T23:51:11.853Z,59.35
2023-01-25T23:53:39.111Z,58.40
2023-01-25T23:56:15.003Z,58.56
2023-01-25T23:58:41.701Z,58.86
